createdAt,value
2023-05-10T00:00:43.510Z,13.59
2023-05-10T00:03:10.122Z,13.57
2023-05-10T00:05:36.655Z,13.52
2023-05-10T00:08:03.162Z,13.48
2023-05-10T00:10:29.625Z,13.43
2023-05-10T00:12:56.114Z,13.49
2023-05-10T00:15:22.736Z,13.49
2023-05-10T00:17:49.426Z,13.49
2023-05-10T00:20:16.392Z,13.47
2023-05-10T00:22:43.197Z,13.45
2023-05-10T00:25:10.655Z,13.49
2023-05-10T00:27:37.193Z,13.40
2023-05-10T00:30:04.032Z,13.39
2023-05-10T00:32:30.616Z,13.42
2023-05-10T00:34:57.108Z,13.37
2023-05-10T00:37:23.569Z,13.30
2023-05-10T00:39:50.061Z,13.32
2023-05-10T00:42:16.577Z,13.37
2023-05-10T00:44:43.098Z,13.34
2023-05-10T00:47:10.193Z,13.30
2023-05-10T00:49:37.370Z,13.20
2023-05-10T00:52:04.320Z,13.20
2023-05-10T00:54:31.266Z,13.18
2023-05-10T00:56:58.311Z,13.16
2023-05-10T00:59:24.930Z,13.10
2023-05-10T01:01:52.632Z,13.05
2023-05-10T01:04:20.978Z,12.99
2023-05-10T01:06:47.529Z,12.96
2023-05-10T01:09:14.121Z,12.95
2023-05-10T01:11:41.159Z,12.98
2023-05-10T01:14:08.395Z,12.98
2023-05-10T01:16:39.020Z,12.97
2023-05-10T01:19:18.079Z,13.00
2023-05-10T01:22:11.388Z,12.99
2023-05-10T01:24:59.584Z,13.03
2023-05-10T01:27:46.267Z,13.06
2023-05-10T01:30:37.384Z,13.03
2023-05-10T01:33:14.638Z,13.00
2023-05-10T01:35:47.251Z,13.06
2023-05-10T01:38:21.255Z,13.04
2023-05-10T01:41:05.925Z,12.98
2023-05-10T01:43:43.742Z,12.87
2023-05-10T01:46:21.696Z,12.70
2023-05-10T01:48:59.733Z,12.55
2023-05-10T01:51:30.561Z,12.50
2023-05-10T01:54:02.538Z,12.39
2023-05-10T01:56:31.832Z,12.37
2023-05-10T01:59:01.832Z,12.25
2023-05-10T02:01:28.876Z,12.20
2023-05-10T02:03:57.981Z,12.22
2023-05-10T02:06:26.236Z,12.16
2023-05-10T02:08:54.273Z,12.15
2023-05-10T02:11:21.941Z,12.16
2023-05-10T02:13:51.411Z,12.12
2023-05-10T02:16:19.352Z,12.11
2023-05-10T02:18:47.802Z,12.07
2023-05-10T02:21:16.331Z,12.08
2023-05-10T02:23:44.207Z,12.14
2023-05-10T02:26:12.963Z,12.14
2023-05-10T02:28:41.828Z,12.05
2023-05-10T02:31:10.783Z,12.13
2023-05-10T02:33:41.303Z,12.07
2023-05-10T02:36:10.097Z,12.07
2023-05-10T02:38:37.739Z,12.03
2023-05-10T02:41:06.278Z,12.07
2023-05-10T02:43:34.810Z,12.06
2023-05-10T02:46:01.748Z,12.08
2023-05-10T02:48:28.963Z,12.01
2023-05-10T02:51:01.278Z,11.99
2023-05-10T02:53:33.119Z,11.91
2023-05-10T02:56:09.040Z,11.97
2023-05-10T02:58:35.630Z,11.94
2023-05-10T03:01:02.235Z,12.01
2023-05-10T03:03:28.762Z,11.97
2023-05-10T03:05:56.865Z,11.94
2023-05-10T03:08:24.555Z,11.94
2023-05-10T03:11:33.115Z,11.95
2023-05-10T03:14:14.327Z,11.96
2023-05-10T03:16:47.962Z,11.87
2023-05-10T03:19:22.896Z,11.89
2023-05-10T03:21:53.604Z,11.83
2023-05-10T03:24:22.734Z,11.79
2023-05-10T03:26:51.162Z,11.73
2023-05-10T03:29:18.340Z,11.77
2023-05-10T03:31:45.229Z,11.79
2023-05-10T03:34:12.236Z,11.74
2023-05-10T03:36:38.866Z,11.76
2023-05-10T03:39:05.315Z,11.73
2023-05-10T03:41:31.865Z,11.74
2023-05-10T03:43:59.539Z,11.71
2023-05-10T03:46:26.061Z,11.73
2023-05-10T03:48:52.789Z,11.77
2023-05-10T03:51:19.396Z,11.69
2023-05-10T03:53:45.848Z,11.67
2023-05-10T03:56:12.373Z,11.65
2023-05-10T03:58:38.826Z,11.69
2023-05-10T04:01:05.357Z,11.69
2023-05-10T04:03:31.918Z,11.71
2023-05-10T04:06:02.769Z,11.70
2023-05-10T04:08:29.969Z,11.69
2023-05-10T04:11:06.577Z,11.70
2023-05-10T04:13:33.226Z,11.72
2023-05-10T04:15:59.752Z,11.73
2023-05-10T04:18:26.481Z,11.77
2023-05-10T04:20:53.154Z,11.79
2023-05-10T04:23:19.639Z,11.78
2023-05-10T04:25:46.104Z,11.70
2023-05-10T04:28:12.751Z,11.70
2023-05-10T04:30:39.913Z,11.69
2023-05-10T04:33:06.432Z,11.73
2023-05-10T04:35:32.998Z,11.74
2023-05-10T04:37:59.534Z,11.74
2023-05-10T04:40:26.782Z,11.75
2023-05-10T04:42:53.213Z,11.76
2023-05-10T04:45:19.763Z,11.78
2023-05-10T04:47:46.251Z,11.78
2023-05-10T04:50:12.883Z,11.79
2023-05-10T04:52:39.282Z,11.81
2023-05-10T04:55:07.724Z,11.88
2023-05-10T04:57:34.165Z,11.87
2023-05-10T05:00:01.040Z,11.83
2023-05-10T05:02:27.639Z,11.91
2023-05-10T05:04:54.136Z,11.93
2023-05-10T05:07:20.613Z,11.87
2023-05-10T05:09:47.026Z,11.91
2023-05-10T05:12:15.193Z,11.94
2023-05-10T05:14:42.235Z,11.94
2023-05-10T05:17:09.091Z,11.98
2023-05-10T05:19:35.726Z,12.01
2023-05-10T05:22:02.508Z,12.05
2023-05-10T05:24:28.922Z,12.07
2023-05-10T05:26:55.460Z,12.09
2023-05-10T05:29:21.904Z,12.08
2023-05-10T05:31:48.366Z,12.13
2023-05-10T05:34:14.926Z,12.15
2023-05-10T05:36:41.386Z,12.18
2023-05-10T05:39:08.267Z,12.24
2023-05-10T05:41:34.729Z,12.33
2023-05-10T05:44:01.166Z,12.39
2023-05-10T05:46:27.686Z,12.43
2023-05-10T05:48:54.202Z,12.46
2023-05-10T05:51:21.093Z,12.44
2023-05-10T05:53:47.510Z,12.50
2023-05-10T05:56:13.945Z,12.53
2023-05-10T05:58:40.630Z,12.47
2023-05-10T06:01:07.521Z,12.45
2023-05-10T06:03:34.193Z,12.50
2023-05-10T06:06:00.789Z,12.51
2023-05-10T06:08:27.339Z,12.58
2023-05-10T06:10:53.802Z,12.74
2023-05-10T06:13:20.520Z,12.81
2023-05-10T06:15:47.221Z,12.92
2023-05-10T06:18:13.800Z,13.12
2023-05-10T06:20:42.286Z,13.13
2023-05-10T06:23:08.748Z,13.11
2023-05-10T06:25:35.272Z,13.10
2023-05-10T06:28:02.613Z,13.13
2023-05-10T06:30:30.156Z,13.13
2023-05-10T06:32:57.100Z,13.10
2023-05-10T06:35:23.674Z,13.19
2023-05-10T06:37:50.498Z,13.26
2023-05-10T06:40:17.224Z,13.28
2023-05-10T06:42:44.230Z,13.29
2023-05-10T06:45:11.227Z,13.08
2023-05-10T06:47:39.243Z,13.06
2023-05-10T06:50:06.534Z,13.07
2023-05-10T06:52:33.074Z,13.04
2023-05-10T06:54:59.613Z,13.10
2023-05-10T06:57:31.786Z,13.17
2023-05-10T06:59:59.708Z,13.23
2023-05-10T07:02:26.363Z,13.31
2023-05-10T07:04:53.380Z,13.36
2023-05-10T07:07:20.166Z,13.30
2023-05-10T07:09:46.853Z,13.34
2023-05-10T07:12:15.364Z,13.43
2023-05-10T07:14:42.502Z,13.58
2023-05-10T07:17:09.203Z,13.63
2023-05-10T07:19:36.287Z,13.69
2023-05-10T07:22:02.769Z,13.62
2023-05-10T07:24:29.416Z,13.55
2023-05-10T07:26:55.901Z,13.61
2023-05-10T07:29:22.308Z,13.58
2023-05-10T07:31:48.819Z,13.59
2023-05-10T07:34:15.276Z,13.72
2023-05-10T07:36:41.737Z,13.75
2023-05-10T07:39:08.513Z,13.84
2023-05-10T07:41:35.815Z,13.85
2023-05-10T07:44:02.532Z,13.82
2023-05-10T07:46:29.590Z,13.87
2023-05-10T07:48:56.095Z,13.95
2023-05-10T07:51:22.603Z,14.02
2023-05-10T07:53:49.019Z,14.09
2023-05-10T07:56:26.252Z,14.08
2023-05-10T07:58:52.930Z,13.98
2023-05-10T08:01:19.446Z,13.97
2023-05-10T08:03:45.915Z,13.97
2023-05-10T08:06:12.418Z,13.98
2023-05-10T08:08:39.242Z,14.00
2023-05-10T08:11:05.769Z,14.06
2023-05-10T08:13:32.443Z,14.15
2023-05-10T08:15:58.917Z,14.12
2023-05-10T08:18:25.662Z,13.97
2023-05-10T08:20:52.151Z,13.99
2023-05-10T08:23:18.490Z,14.09
2023-05-10T08:25:44.823Z,14.23
2023-05-10T08:28:12.062Z,14.35
2023-05-10T08:30:38.459Z,14.39
2023-05-10T08:33:04.799Z,14.44
2023-05-10T08:35:31.327Z,14.53
2023-05-10T08:37:57.662Z,14.59
2023-05-10T08:40:25.251Z,14.68
2023-05-10T08:42:55.854Z,14.76
2023-05-10T08:45:24.050Z,14.85
2023-05-10T08:47:51.289Z,14.91
2023-05-10T08:50:18.803Z,14.86
2023-05-10T08:52:46.281Z,14.84
2023-05-10T08:55:12.623Z,14.77
2023-05-10T08:57:39.052Z,14.78
2023-05-10T09:00:06.364Z,14.81
2023-05-10T09:02:32.688Z,14.77
2023-05-10T09:04:59.153Z,14.72
2023-05-10T09:07:25.796Z,14.63
2023-05-10T09:09:53.012Z,14.55
2023-05-10T09:12:19.332Z,14.53
2023-05-10T09:14:46.159Z,14.51
2023-05-10T09:17:12.663Z,14.50
2023-05-10T09:19:39.038Z,14.51
2023-05-10T09:22:05.715Z,14.51
2023-05-10T09:24:32.153Z,14.44
2023-05-10T09:27:01.694Z,14.36
2023-05-10T09:29:39.478Z,14.20
2023-05-10T09:32:05.962Z,14.22
2023-05-10T09:34:33.240Z,14.40
2023-05-10T09:37:02.027Z,14.51
2023-05-10T09:39:34.851Z,14.56
2023-05-10T09:42:04.679Z,14.75
2023-05-10T09:44:31.992Z,14.87
2023-05-10T09:47:00.303Z,14.84
2023-05-10T09:49:26.657Z,14.89
2023-05-10T09:52:03.635Z,15.05
2023-05-10T09:54:30.435Z,15.18
2023-05-10T09:56:56.773Z,15.32
2023-05-10T09:59:25.532Z,15.60
2023-05-10T10:01:52.559Z,15.72
2023-05-10T10:04:20.905Z,15.71
2023-05-10T10:06:47.220Z,15.84
2023-05-10T10:09:14.852Z,15.97
2023-05-10T10:11:42.404Z,16.00
2023-05-10T10:14:08.735Z,16.06
2023-05-10T10:16:35.459Z,16.08
2023-05-10T10:19:02.083Z,16.16
2023-05-10T10:21:28.607Z,16.22
2023-05-10T10:23:54.979Z,16.66
2023-05-10T10:26:22.058Z,17.67
2023-05-10T10:29:06.996Z,18.79
2023-05-10T10:31:46.198Z,18.46
2023-05-10T10:34:26.200Z,17.94
2023-05-10T10:36:52.796Z,17.63
2023-05-10T10:39:19.875Z,17.55
2023-05-10T10:41:51.953Z,17.73
2023-05-10T10:44:25.223Z,18.15
2023-05-10T10:49:27.617Z,19.58
2023-05-10T10:52:12.701Z,19.53
2023-05-10T10:54:39.346Z,19.96
2023-05-10T10:57:15.221Z,19.82
2023-05-10T10:59:47.818Z,19.77
2023-05-10T11:02:32.990Z,19.73
2023-05-10T11:04:59.342Z,20.13
2023-05-10T11:07:25.840Z,19.50
2023-05-10T11:09:52.822Z,19.48
2023-05-10T11:12:19.231Z,19.05
2023-05-10T11:14:50.589Z,18.80
2023-05-10T11:17:23.998Z,18.54
2023-05-10T11:20:10.040Z,19.49
2023-05-10T11:22:52.751Z,21.33
2023-05-10T11:25:19.252Z,20.91
2023-05-10T11:45:19.918Z,17.31
2023-05-10T11:47:49.708Z,17.32
2023-05-10T11:50:16.379Z,19.04
2023-05-10T11:52:42.866Z,21.46
2023-05-10T11:55:09.301Z,22.89
2023-05-10T11:57:36.244Z,23.15
2023-05-10T12:00:04.690Z,22.84
2023-05-10T12:02:31.373Z,24.17
2023-05-10T12:04:58.243Z,23.97
2023-05-10T12:07:24.677Z,23.93
2023-05-10T12:10:09.949Z,24.64
2023-05-10T12:12:43.936Z,25.36
2023-05-10T12:15:17.984Z,25.79
2023-05-10T12:17:45.092Z,26.20
2023-05-10T12:20:17.931Z,26.60
2023-05-10T12:23:04.258Z,26.03
2023-05-10T12:25:31.518Z,27.08
2023-05-10T12:27:59.209Z,26.72
2023-05-10T12:30:29.487Z,26.11
2023-05-10T12:33:00.913Z,24.59
2023-05-10T12:35:27.349Z,24.50
2023-05-10T12:37:53.743Z,23.40
2023-05-10T12:40:20.261Z,22.64
2023-05-10T12:42:46.621Z,23.10
2023-05-10T12:45:13.139Z,23.14
2023-05-10T12:47:42.195Z,22.53
2023-05-10T12:53:49.899Z,21.91
2023-05-10T12:59:40.129Z,20.41
2023-05-10T13:02:07.078Z,20.42
2023-05-10T13:04:33.449Z,20.60
2023-05-10T13:07:00.013Z,20.86
2023-05-10T13:09:27.547Z,22.01
2023-05-10T13:11:56.719Z,23.44
2023-05-10T13:14:23.242Z,24.00
2023-05-10T13:16:49.668Z,24.06
2023-05-10T13:19:16.752Z,24.46
2023-05-10T13:21:43.721Z,23.46
2023-05-10T13:24:10.098Z,22.95
2023-05-10T13:26:40.372Z,23.87
2023-05-10T13:29:06.742Z,24.60
2023-05-10T13:31:33.238Z,23.25
2023-05-10T13:33:59.858Z,23.15
2023-05-10T13:36:26.199Z,23.84
2023-05-10T13:38:52.587Z,23.93
2023-05-10T13:41:19.135Z,22.46
2023-05-10T13:43:45.680Z,21.81
2023-05-10T13:46:12.059Z,21.02
2023-05-10T13:48:39.249Z,20.48
2023-05-10T13:51:05.826Z,20.54
2023-05-10T13:53:32.166Z,21.92
2023-05-10T13:55:58.622Z,23.42
2023-05-10T13:58:24.971Z,23.67
2023-05-10T14:00:51.379Z,23.29
2023-05-10T14:03:19.601Z,21.71
2023-05-10T14:05:46.423Z,21.28
2023-05-10T14:11:12.186Z,20.68
2023-05-10T14:13:48.164Z,20.35
2023-05-10T14:16:15.814Z,20.44
2023-05-10T14:18:42.428Z,21.05
2023-05-10T14:21:08.876Z,22.02
2023-05-10T14:23:35.189Z,22.63
2023-05-10T14:26:01.591Z,21.76
2023-05-10T14:28:27.965Z,20.97
2023-05-10T14:30:54.345Z,20.63
2023-05-10T14:33:21.527Z,20.30
2023-05-10T14:35:48.134Z,20.07
2023-05-10T14:38:14.826Z,20.20
2023-05-10T14:40:41.285Z,20.03
2023-05-10T14:43:07.621Z,19.88
2023-05-10T14:45:34.142Z,19.35
2023-05-10T14:48:01.213Z,18.84
2023-05-10T14:50:36.503Z,18.46
2023-05-10T14:53:03.876Z,18.13
2023-05-10T14:55:30.199Z,17.82
2023-05-10T14:57:57.144Z,17.79
2023-05-10T15:00:23.535Z,17.71
2023-05-10T15:02:50.663Z,17.73
2023-05-10T15:05:17.710Z,17.54
2023-05-10T15:07:44.921Z,17.52
2023-05-10T15:10:12.306Z,17.58
2023-05-10T15:12:38.951Z,17.56
2023-05-10T15:15:05.951Z,17.44
2023-05-10T15:17:32.618Z,17.39
2023-05-10T15:19:58.975Z,17.50
2023-05-10T15:22:25.438Z,17.61
2023-05-10T15:24:51.812Z,17.62
2023-05-10T15:27:18.150Z,17.80
2023-05-10T15:29:44.527Z,17.92
2023-05-10T15:32:11.076Z,18.33
2023-05-10T15:34:37.475Z,19.39
2023-05-10T15:37:03.865Z,20.40
2023-05-10T15:39:30.478Z,21.15
2023-05-10T15:41:56.882Z,21.83
2023-05-10T15:44:23.302Z,21.62
2023-05-10T15:46:49.747Z,21.52
2023-05-10T15:49:16.125Z,21.95
2023-05-10T15:51:42.469Z,22.45
2023-05-10T15:54:09.858Z,22.95
2023-05-10T15:56:36.245Z,22.64
2023-05-10T15:59:03.619Z,22.67
2023-05-10T16:01:30.902Z,22.57
2023-05-10T16:03:57.319Z,22.59
2023-05-10T16:06:23.660Z,22.44
2023-05-10T16:08:50.354Z,22.67
2023-05-10T16:11:16.912Z,22.51
2023-05-10T16:13:43.205Z,21.74
2023-05-10T16:16:09.687Z,21.01
2023-05-10T16:18:36.426Z,21.23
2023-05-10T16:21:03.386Z,21.54
2023-05-10T16:23:29.794Z,21.20
2023-05-10T16:25:56.191Z,21.57
2023-05-10T16:28:22.646Z,22.08
2023-05-10T16:30:49.429Z,21.79
2023-05-10T16:33:16.660Z,21.19
2023-05-10T16:35:43.721Z,20.64
2023-05-10T16:38:10.064Z,20.12
2023-05-10T16:40:36.433Z,19.58
2023-05-10T16:43:02.726Z,19.34
2023-05-10T16:45:30.899Z,19.07
2023-05-10T16:47:57.350Z,18.88
2023-05-10T16:50:23.852Z,18.84
2023-05-10T16:52:50.300Z,18.65
2023-05-10T16:55:16.727Z,18.37
2023-05-10T16:57:43.228Z,18.39
2023-05-10T17:00:11.864Z,18.34
2023-05-10T17:02:39.161Z,18.26
2023-05-10T17:05:05.654Z,18.11
2023-05-10T17:07:31.976Z,18.18
2023-05-10T17:09:59.349Z,18.17
2023-05-10T17:12:26.038Z,18.18
2023-05-10T17:14:52.375Z,18.11
2023-05-10T17:17:18.767Z,17.98
2023-05-10T17:19:45.426Z,17.92
2023-05-10T17:22:14.864Z,17.72
2023-05-10T17:24:41.245Z,17.57
2023-05-10T17:27:08.251Z,17.44
2023-05-10T17:29:34.628Z,17.24
2023-05-10T17:32:01.108Z,17.08
2023-05-10T17:34:27.627Z,16.96
2023-05-10T17:36:53.953Z,16.95
2023-05-10T17:39:20.444Z,16.87
2023-05-10T17:41:46.852Z,16.80
2023-05-10T17:44:13.803Z,16.75
2023-05-10T17:46:40.107Z,16.80
2023-05-10T17:49:06.544Z,16.95
2023-05-10T17:51:33.178Z,17.05
2023-05-10T17:54:01.428Z,16.86
2023-05-10T17:56:28.731Z,17.02
2023-05-10T17:58:55.039Z,16.90
2023-05-10T18:01:21.424Z,16.74
2023-05-10T18:03:49.300Z,16.64
2023-05-10T18:06:15.648Z,16.62
2023-05-10T18:08:42.479Z,16.66
2023-05-10T18:11:08.829Z,16.68
2023-05-10T18:13:35.159Z,16.73
2023-05-10T18:16:01.525Z,16.77
2023-05-10T18:18:27.901Z,16.73
2023-05-10T18:20:57.497Z,16.71
2023-05-10T18:23:24.481Z,16.68
2023-05-10T18:25:51.791Z,16.64
2023-05-10T18:28:18.449Z,16.64
2023-05-10T18:30:44.919Z,16.58
2023-05-10T18:33:11.969Z,16.54
2023-05-10T18:35:40.160Z,16.49
2023-05-10T18:38:07.991Z,16.45
2023-05-10T18:40:34.297Z,16.42
2023-05-10T18:43:00.621Z,16.38
2023-05-10T18:45:26.994Z,16.30
2023-05-10T18:47:53.548Z,16.25
2023-05-10T18:50:20.020Z,16.22
2023-05-10T18:52:46.827Z,16.20
2023-05-10T18:55:13.469Z,16.15
2023-05-10T18:57:43.069Z,16.11
2023-05-10T19:00:10.420Z,16.04
2023-05-10T19:02:37.150Z,15.98
2023-05-10T19:05:03.739Z,15.93
2023-05-10T19:07:30.221Z,15.91
2023-05-10T19:09:56.818Z,15.81
2023-05-10T19:12:23.187Z,15.78
2023-05-10T19:14:49.548Z,15.67
2023-05-10T19:17:20.237Z,15.60
2023-05-10T19:19:49.766Z,15.54
2023-05-10T19:22:16.364Z,15.47
2023-05-10T19:24:42.807Z,15.43
2023-05-10T19:27:09.391Z,15.39
2023-05-10T19:29:35.740Z,15.35
2023-05-10T19:32:05.043Z,15.30
2023-05-10T19:34:31.543Z,15.29
2023-05-10T19:36:57.871Z,15.28
2023-05-10T19:39:24.190Z,15.28
2023-05-10T19:41:50.876Z,15.21
2023-05-10T19:44:19.905Z,15.17
2023-05-10T19:46:46.408Z,15.13
2023-05-10T19:49:12.928Z,15.05
2023-05-10T19:51:39.268Z,15.00
2023-05-10T19:54:05.612Z,14.93
2023-05-10T19:56:31.918Z,14.91
2023-05-10T19:58:58.237Z,14.83
2023-05-10T20:01:24.756Z,14.76
2023-05-10T20:03:51.640Z,14.73
2023-05-10T20:06:18.007Z,14.68
2023-05-10T20:08:44.734Z,14.62
2023-05-10T20:11:11.275Z,14.59
2023-05-10T20:13:38.166Z,14.53
2023-05-10T20:16:06.120Z,14.48
2023-05-10T20:18:32.468Z,14.49
2023-05-10T20:20:59.956Z,14.49
2023-05-10T20:23:26.355Z,14.45
2023-05-10T20:25:53.602Z,14.46
2023-05-10T20:28:23.936Z,14.46
2023-05-10T20:30:54.111Z,14.47
2023-05-10T20:33:21.048Z,14.49
2023-05-10T20:35:47.370Z,14.50
2023-05-10T20:38:13.706Z,14.49
2023-05-10T20:40:40.156Z,14.48
2023-05-10T20:43:06.499Z,14.47
2023-05-10T20:45:32.965Z,14.42
2023-05-10T20:47:59.362Z,14.46
2023-05-10T20:50:25.796Z,14.45
2023-05-10T20:52:52.397Z,14.46
2023-05-10T20:55:19.012Z,14.45
2023-05-10T20:57:46.444Z,14.47
2023-05-10T21:00:13.929Z,14.45
2023-05-10T21:02:44.393Z,14.44
2023-05-10T21:05:10.961Z,14.44
2023-05-10T21:07:37.760Z,14.44
2023-05-10T21:10:04.480Z,14.45
2023-05-10T21:12:30.849Z,14.44
2023-05-10T21:14:57.288Z,14.46
2023-05-10T21:17:23.590Z,14.46
2023-05-10T21:19:50.444Z,14.45
2023-05-10T21:22:16.788Z,14.44
2023-05-10T21:24:43.419Z,14.45
2023-05-10T21:27:09.897Z,14.44
2023-05-10T21:29:36.204Z,14.41
2023-05-10T21:32:02.815Z,14.41
2023-05-10T21:34:29.357Z,14.37
2023-05-10T21:36:55.694Z,14.35
2023-05-10T21:39:22.201Z,14.36
2023-05-10T21:41:48.602Z,14.33
2023-05-10T21:44:14.984Z,14.32
2023-05-10T21:46:41.309Z,14.30
2023-05-10T21:49:08.545Z,14.24
2023-05-10T21:51:35.755Z,14.16
2023-05-10T21:54:02.122Z,14.10
2023-05-10T21:56:28.416Z,14.04
2023-05-10T21:58:54.744Z,13.94
2023-05-10T22:01:21.151Z,13.86
2023-05-10T22:03:47.630Z,13.79
2023-05-10T22:06:14.059Z,13.69
2023-05-10T22:08:40.560Z,13.63
2023-05-10T22:11:06.892Z,13.55
2023-05-10T22:13:33.208Z,13.50
2023-05-10T22:15:59.523Z,13.43
2023-05-10T22:18:25.992Z,13.36
2023-05-10T22:20:52.417Z,13.29
2023-05-10T22:23:18.760Z,13.25
2023-05-10T22:25:45.099Z,13.25
2023-05-10T22:28:11.465Z,13.22
2023-05-10T22:30:37.926Z,13.24
2023-05-10T22:33:04.265Z,13.23
2023-05-10T22:35:30.713Z,13.23
2023-05-10T22:37:57.015Z,13.20
2023-05-10T22:40:23.341Z,13.15
2023-05-10T22:42:49.651Z,13.12
2023-05-10T22:45:16.028Z,13.10
2023-05-10T22:47:42.369Z,13.09
2023-05-10T22:50:09.229Z,13.05
2023-05-10T22:52:35.693Z,13.05
2023-05-10T22:55:02.045Z,13.05
2023-05-10T22:57:28.363Z,13.09
2023-05-10T22:59:54.760Z,13.09
2023-05-10T23:02:21.260Z,13.12
2023-05-10T23:04:47.634Z,13.10
2023-05-10T23:07:14.035Z,13.11
2023-05-10T23:09:40.420Z,13.11
2023-05-10T23:12:06.762Z,13.13
2023-05-10T23:14:33.116Z,13.12
2023-05-10T23:16:59.494Z,13.13
2023-05-10T23:19:25.993Z,13.13
2023-05-10T23:21:52.344Z,13.17
2023-05-10T23:24:18.734Z,13.16
2023-05-10T23:26:46.360Z,13.13
2023-05-10T23:29:12.762Z,13.12
2023-05-10T23:31:45.232Z,13.12
2023-05-10T23:34:12.116Z,13.13
2023-05-10T23:36:38.734Z,13.18
2023-05-10T23:39:05.070Z,13.23
2023-05-10T23:41:31.628Z,13.24
2023-05-10T23:43:57.932Z,13.24
2023-05-10T23:46:24.436Z,13.18
2023-05-10T23:48:50.871Z,13.17
2023-05-10T23:51:17.172Z,13.15
2023-05-10T23:53:43.496Z,13.15
2023-05-10T23:56:09.810Z,13.11
2023-05-10T23:58:36.112Z,13.05
